sensor_id;sensor_type;location;lat;lon;timestamp;P1;durP1;ratioP1;P2;durP2;ratioP2
41623;SDS011;27319;50.306;18.926;2023-08-12T00:03:29;15.38;;;10.63;;
41623;SDS011;27319;50.306;18.926;2023-08-12T00:06:29;17.00;;;10.15;;
41623;SDS011;27319;50.306;18.926;2023-08-12T00:10:30;19.48;;;11.27;;
41623;SDS011;27319;50.306;18.926;2023-08-12T00:13:31;19.73;;;10.25;;
41623;SDS011;27319;50.306;18.926;2023-08-12T00:17:32;15.63;;;9.23;;
41623;SDS011;27319;50.306;18.926;2023-08-12T00:21:33;16.35;;;9.80;;
41623;SDS011;27319;50.306;18.926;2023-08-12T00:25:34;22.73;;;13.75;;
41623;SDS011;27319;50.306;18.926;2023-08-12T00:29:35;25.13;;;12.93;;
41623;SDS011;27319;50.306;18.926;2023-08-12T00:33:36;20.02;;;11.73;;
41623;SDS011;27319;50.306;18.926;2023-08-12T00:37:36;20.13;;;9.80;;
41623;SDS011;27319;50.306;18.926;2023-08-12T00:41:37;17.48;;;9.35;;
41623;SDS011;27319;50.306;18.926;2023-08-12T00:45:38;16.80;;;9.73;;
41623;SDS011;27319;50.306;18.926;2023-08-12T00:48:39;14.77;;;9.30;;
41623;SDS011;27319;50.306;18.926;2023-08-12T00:52:40;20.10;;;10.27;;
41623;SDS011;27319;50.306;18.926;2023-08-12T00:56:41;14.48;;;8.80;;
41623;SDS011;27319;50.306;18.926;2023-08-12T01:00:42;12.82;;;7.45;;
41623;SDS011;27319;50.306;18.926;2023-08-12T01:04:42;14.40;;;8.32;;
41623;SDS011;27319;50.306;18.926;2023-08-12T01:08:43;14.43;;;8.55;;
41623;SDS011;27319;50.306;18.926;2023-08-12T01:16:29;11.63;;;8.63;;
41623;SDS011;27319;50.306;18.926;2023-08-12T01:20:28;13.45;;;8.00;;
41623;SDS011;27319;50.306;18.926;2023-08-12T01:24:35;12.73;;;8.38;;
41623;SDS011;27319;50.306;18.926;2023-08-12T01:28:36;13.52;;;7.40;;
41623;SDS011;27319;50.306;18.926;2023-08-12T01:32:45;12.15;;;7.80;;
41623;SDS011;27319;50.306;18.926;2023-08-12T01:36:45;10.13;;;7.45;;
41623;SDS011;27319;50.306;18.926;2023-08-12T01:40:44;12.07;;;8.05;;
41623;SDS011;27319;50.306;18.926;2023-08-12T01:44:45;11.70;;;7.80;;
41623;SDS011;27319;50.306;18.926;2023-08-12T01:47:47;11.85;;;7.25;;
41623;SDS011;27319;50.306;18.926;2023-08-12T01:51:48;11.90;;;7.35;;
41623;SDS011;27319;50.306;18.926;2023-08-12T01:55:48;10.80;;;6.90;;
41623;SDS011;27319;50.306;18.926;2023-08-12T01:59:49;11.00;;;7.50;;
41623;SDS011;27319;50.306;18.926;2023-08-12T02:02:51;12.25;;;8.45;;
41623;SDS011;27319;50.306;18.926;2023-08-12T02:06:52;9.13;;;6.70;;
41623;SDS011;27319;50.306;18.926;2023-08-12T02:10:13;10.98;;;7.00;;
41623;SDS011;27319;50.306;18.926;2023-08-12T02:14:13;9.45;;;6.38;;
41623;SDS011;27319;50.306;18.926;2023-08-12T02:18:14;10.40;;;6.25;;
41623;SDS011;27319;50.306;18.926;2023-08-12T02:22:15;9.63;;;6.65;;
41623;SDS011;27319;50.306;18.926;2023-08-12T02:26:16;11.32;;;6.50;;
41623;SDS011;27319;50.306;18.926;2023-08-12T02:30:17;13.57;;;6.60;;
41623;SDS011;27319;50.306;18.926;2023-08-12T02:34:17;11.25;;;6.65;;
41623;SDS011;27319;50.306;18.926;2023-08-12T02:37:18;11.48;;;6.88;;
41623;SDS011;27319;50.306;18.926;2023-08-12T02:41:19;11.00;;;6.43;;
41623;SDS011;27319;50.306;18.926;2023-08-12T02:45:20;8.88;;;6.32;;
41623;SDS011;27319;50.306;18.926;2023-08-12T02:48:21;10.90;;;7.78;;
41623;SDS011;27319;50.306;18.926;2023-08-12T02:52:22;10.18;;;6.80;;
41623;SDS011;27319;50.306;18.926;2023-08-12T02:56:22;11.90;;;6.45;;
41623;SDS011;27319;50.306;18.926;2023-08-12T03:00:23;10.60;;;6.38;;
41623;SDS011;27319;50.306;18.926;2023-08-12T03:04:27;8.68;;;5.78;;
41623;SDS011;27319;50.306;18.926;2023-08-12T03:08:28;7.70;;;5.80;;
41623;SDS011;27319;50.306;18.926;2023-08-12T03:12:28;10.65;;;6.00;;
41623;SDS011;27319;50.306;18.926;2023-08-12T03:16:29;9.07;;;6.07;;
41623;SDS011;27319;50.306;18.926;2023-08-12T03:20:30;13.35;;;6.20;;
41623;SDS011;27319;50.306;18.926;2023-08-12T03:24:31;9.75;;;6.47;;
41623;SDS011;27319;50.306;18.926;2023-08-12T03:28:32;9.98;;;6.30;;
41623;SDS011;27319;50.306;18.926;2023-08-12T03:32:33;8.27;;;5.93;;
41623;SDS011;27319;50.306;18.926;2023-08-12T03:36:33;10.15;;;6.57;;
41623;SDS011;27319;50.306;18.926;2023-08-12T03:40:37;9.15;;;7.13;;
41623;SDS011;27319;50.306;18.926;2023-08-12T03:44:35;9.95;;;6.18;;
41623;SDS011;27319;50.306;18.926;2023-08-12T03:48:36;10.57;;;6.13;;
41623;SDS011;27319;50.306;18.926;2023-08-12T03:52:37;7.82;;;5.78;;
41623;SDS011;27319;50.306;18.926;2023-08-12T03:56:39;13.50;;;6.18;;
41623;SDS011;27319;50.306;18.926;2023-08-12T03:59:39;9.05;;;6.35;;
41623;SDS011;27319;50.306;18.926;2023-08-12T04:03:40;13.60;;;6.20;;
41623;SDS011;27319;50.306;18.926;2023-08-12T04:07:41;11.68;;;6.57;;
41623;SDS011;27319;50.306;18.926;2023-08-12T04:11:42;12.10;;;6.60;;
41623;SDS011;27319;50.306;18.926;2023-08-12T04:15:48;10.27;;;6.75;;
41623;SDS011;27319;50.306;18.926;2023-08-12T04:19:44;11.05;;;6.70;;
41623;SDS011;27319;50.306;18.926;2023-08-12T04:22:45;10.40;;;6.82;;
41623;SDS011;27319;50.306;18.926;2023-08-12T04:26:45;10.13;;;6.80;;
41623;SDS011;27319;50.306;18.926;2023-08-12T04:30:47;12.25;;;6.68;;
41623;SDS011;27319;50.306;18.926;2023-08-12T04:33:50;10.43;;;7.22;;
41623;SDS011;27319;50.306;18.926;2023-08-12T04:37:51;11.00;;;7.35;;
41623;SDS011;27319;50.306;18.926;2023-08-12T04:41:52;11.40;;;7.45;;
41623;SDS011;27319;50.306;18.926;2023-08-12T04:45:53;8.10;;;6.65;;
41623;SDS011;27319;50.306;18.926;2023-08-12T04:49:54;11.45;;;8.00;;
41623;SDS011;27319;50.306;18.926;2023-08-12T04:53:54;12.65;;;8.00;;
41623;SDS011;27319;50.306;18.926;2023-08-12T04:57:55;13.27;;;8.98;;
41623;SDS011;27319;50.306;18.926;2023-08-12T05:01:56;13.32;;;8.02;;
41623;SDS011;27319;50.306;18.926;2023-08-12T05:05:57;18.67;;;11.40;;
41623;SDS011;27319;50.306;18.926;2023-08-12T05:09:57;30.15;;;10.85;;
41623;SDS011;27319;50.306;18.926;2023-08-12T05:13:58;18.85;;;12.50;;
41623;SDS011;27319;50.306;18.926;2023-08-12T05:17:59;16.52;;;11.88;;
41623;SDS011;27319;50.306;18.926;2023-08-12T05:22:00;23.63;;;11.82;;
41623;SDS011;27319;50.306;18.926;2023-08-12T05:26:00;15.77;;;11.10;;
41623;SDS011;27319;50.306;18.926;2023-08-12T05:30:01;21.70;;;12.65;;
41623;SDS011;27319;50.306;18.926;2023-08-12T05:34:02;20.42;;;11.82;;
41623;SDS011;27319;50.306;18.926;2023-08-12T05:38:06;19.20;;;11.88;;
41623;SDS011;27319;50.306;18.926;2023-08-12T05:41:06;15.55;;;11.40;;
41623;SDS011;27319;50.306;18.926;2023-08-12T05:45:07;18.23;;;10.93;;
41623;SDS011;27319;50.306;18.926;2023-08-12T05:49:08;14.15;;;10.57;;
41623;SDS011;27319;50.306;18.926;2023-08-12T05:53:08;15.45;;;9.13;;
41623;SDS011;27319;50.306;18.926;2023-08-12T05:57:09;15.70;;;10.10;;
41623;SDS011;27319;50.306;18.926;2023-08-12T06:01:10;15.07;;;9.60;;
41623;SDS011;27319;50.306;18.926;2023-08-12T06:05:11;17.77;;;10.70;;
41623;SDS011;27319;50.306;18.926;2023-08-12T06:09:08;14.70;;;10.27;;
41623;SDS011;27319;50.306;18.926;2023-08-12T06:13:08;15.73;;;10.13;;
41623;SDS011;27319;50.306;18.926;2023-08-12T06:17:09;18.02;;;11.32;;
41623;SDS011;27319;50.306;18.926;2023-08-12T06:21:10;13.80;;;9.80;;
41623;SDS011;27319;50.306;18.926;2023-08-12T06:25:11;13.93;;;9.00;;
41623;SDS011;27319;50.306;18.926;2023-08-12T06:29:13;14.95;;;9.50;;
41623;SDS011;27319;50.306;18.926;2023-08-12T06:33:14;11.63;;;8.43;;
41623;SDS011;27319;50.306;18.926;2023-08-12T06:37:14;13.55;;;8.60;;
41623;SDS011;27319;50.306;18.926;2023-08-12T06:41:15;10.82;;;6.90;;
41623;SDS011;27319;50.306;18.926;2023-08-12T06:45:19;12.70;;;7.82;;
41623;SDS011;27319;50.306;18.926;2023-08-12T06:49:20;11.95;;;7.18;;
41623;SDS011;27319;50.306;18.926;2023-08-12T06:53:21;7.20;;;5.63;;
41623;SDS011;27319;50.306;18.926;2023-08-12T06:57:22;9.10;;;5.35;;
41623;SDS011;27319;50.306;18.926;2023-08-12T07:00:22;9.77;;;6.18;;
41623;SDS011;27319;50.306;18.926;2023-08-12T07:03:44;11.27;;;6.43;;
41623;SDS011;27319;50.306;18.926;2023-08-12T07:07:44;9.57;;;5.93;;
41623;SDS011;27319;50.306;18.926;2023-08-12T07:11:45;8.77;;;5.47;;
41623;SDS011;27319;50.306;18.926;2023-08-12T07:15:46;8.45;;;4.53;;
41623;SDS011;27319;50.306;18.926;2023-08-12T07:19:47;8.27;;;5.30;;
41623;SDS011;27319;50.306;18.926;2023-08-12T07:23:48;8.48;;;5.07;;
41623;SDS011;27319;50.306;18.926;2023-08-12T07:27:49;6.72;;;4.28;;
41623;SDS011;27319;50.306;18.926;2023-08-12T07:30:50;7.25;;;4.45;;
41623;SDS011;27319;50.306;18.926;2023-08-12T07:34:51;7.07;;;4.97;;
41623;SDS011;27319;50.306;18.926;2023-08-12T07:38:52;13.90;;;5.03;;
41623;SDS011;27319;50.306;18.926;2023-08-12T07:42:52;4.70;;;3.70;;
41623;SDS011;27319;50.306;18.926;2023-08-12T07:46:53;7.97;;;3.90;;
41623;SDS011;27319;50.306;18.926;2023-08-12T07:50:55;5.35;;;4.00;;
41623;SDS011;27319;50.306;18.926;2023-08-12T07:54:55;5.13;;;3.33;;
41623;SDS011;27319;50.306;18.926;2023-08-12T07:58:56;5.35;;;3.20;;
41623;SDS011;27319;50.306;18.926;2023-08-12T08:02:57;4.28;;;2.80;;
41623;SDS011;27319;50.306;18.926;2023-08-12T08:06:58;4.57;;;2.80;;
41623;SDS011;27319;50.306;18.926;2023-08-12T08:10:58;4.43;;;2.83;;
41623;SDS011;27319;50.306;18.926;2023-08-12T08:14:59;4.85;;;2.75;;
41623;SDS011;27319;50.306;18.926;2023-08-12T08:18:56;4.82;;;3.67;;
41623;SDS011;27319;50.306;18.926;2023-08-12T08:22:57;5.05;;;3.38;;
41623;SDS011;27319;50.306;18.926;2023-08-12T08:25:58;3.97;;;2.85;;
41623;SDS011;27319;50.306;18.926;2023-08-12T08:29:58;3.38;;;2.78;;
41623;SDS011;27319;50.306;18.926;2023-08-12T08:33:59;4.85;;;3.53;;
41623;SDS011;27319;50.306;18.926;2023-08-12T08:38:00;4.90;;;3.15;;
41623;SDS011;27319;50.306;18.926;2023-08-12T08:42:02;3.85;;;2.90;;
41623;SDS011;27319;50.306;18.926;2023-08-12T08:46:02;6.90;;;4.03;;
41623;SDS011;27319;50.306;18.926;2023-08-12T08:50:03;4.00;;;2.88;;
41623;SDS011;27319;50.306;18.926;2023-08-12T08:54:04;5.57;;;3.42;;
41623;SDS011;27319;50.306;18.926;2023-08-12T08:58:05;4.43;;;2.95;;
41623;SDS011;27319;50.306;18.926;2023-08-12T09:02:05;6.45;;;3.20;;
41623;SDS011;27319;50.306;18.926;2023-08-12T09:06:06;7.85;;;4.03;;
41623;SDS011;27319;50.306;18.926;2023-08-12T09:10:07;5.82;;;3.20;;
41623;SDS011;27319;50.306;18.926;2023-08-12T09:14:08;5.25;;;3.40;;
41623;SDS011;27319;50.306;18.926;2023-08-12T09:18:09;4.53;;;3.42;;
41623;SDS011;27319;50.306;18.926;2023-08-12T09:21:30;4.57;;;3.20;;
41623;SDS011;27319;50.306;18.926;2023-08-12T09:25:33;8.77;;;3.17;;
41623;SDS011;27319;50.306;18.926;2023-08-12T09:29:35;4.07;;;3.45;;
41623;SDS011;27319;50.306;18.926;2023-08-12T09:33:38;7.40;;;3.15;;
41623;SDS011;27319;50.306;18.926;2023-08-12T09:36:47;3.42;;;2.47;;
41623;SDS011;27319;50.306;18.926;2023-08-12T09:40:48;4.97;;;2.90;;
41623;SDS011;27319;50.306;18.926;2023-08-12T09:44:48;3.88;;;2.72;;
41623;SDS011;27319;50.306;18.926;2023-08-12T09:48:50;5.00;;;2.70;;
41623;SDS011;27319;50.306;18.926;2023-08-12T09:52:50;8.35;;;2.67;;
41623;SDS011;27319;50.306;18.926;2023-08-12T09:56:54;6.30;;;3.08;;
41623;SDS011;27319;50.306;18.926;2023-08-12T10:00:52;3.80;;;3.00;;
41623;SDS011;27319;50.306;18.926;2023-08-12T10:04:53;3.72;;;2.65;;
41623;SDS011;27319;50.306;18.926;2023-08-12T10:08:54;4.68;;;2.85;;
41623;SDS011;27319;50.306;18.926;2023-08-12T10:12:54;3.78;;;2.42;;
41623;SDS011;27319;50.306;18.926;2023-08-12T10:16:55;6.60;;;2.92;;
41623;SDS011;27319;50.306;18.926;2023-08-12T10:19:58;3.92;;;2.55;;
41623;SDS011;27319;50.306;18.926;2023-08-12T10:23:03;4.47;;;2.28;;
41623;SDS011;27319;50.306;18.926;2023-08-12T10:27:04;11.95;;;2.53;;
41623;SDS011;27319;50.306;18.926;2023-08-12T10:31:05;4.13;;;2.40;;
41623;SDS011;27319;50.306;18.926;2023-08-12T10:35:09;3.20;;;2.47;;
41623;SDS011;27319;50.306;18.926;2023-08-12T10:39:25;2.70;;;2.25;;
41623;SDS011;27319;50.306;18.926;2023-08-12T10:43:22;4.43;;;2.60;;
41623;SDS011;27319;50.306;18.926;2023-08-12T10:47:29;6.03;;;2.43;;
41623;SDS011;27319;50.306;18.926;2023-08-12T10:51:19;2.45;;;2.25;;
41623;SDS011;27319;50.306;18.926;2023-08-12T10:55:21;3.70;;;2.40;;
41623;SDS011;27319;50.306;18.926;2023-08-12T11:03:06;2.30;;;2.05;;
41623;SDS011;27319;50.306;18.926;2023-08-12T11:07:17;3.30;;;2.47;;
41623;SDS011;27319;50.306;18.926;2023-08-12T11:11:22;4.07;;;2.55;;
41623;SDS011;27319;50.306;18.926;2023-08-12T11:15:33;3.65;;;2.28;;
41623;SDS011;27319;50.306;18.926;2023-08-12T11:19:33;3.75;;;2.38;;
41623;SDS011;27319;50.306;18.926;2023-08-12T11:22:35;2.95;;;2.53;;
41623;SDS011;27319;50.306;18.926;2023-08-12T11:25:53;9.38;;;7.45;;
41623;SDS011;27319;50.306;18.926;2023-08-12T11:28:54;3.35;;;2.38;;
41623;SDS011;27319;50.306;18.926;2023-08-12T11:32:18;5.60;;;2.80;;
41623;SDS011;27319;50.306;18.926;2023-08-12T11:36:18;2.42;;;2.20;;
41623;SDS011;27319;50.306;18.926;2023-08-12T11:40:19;3.30;;;2.38;;
41623;SDS011;27319;50.306;18.926;2023-08-12T11:44:23;3.60;;;2.58;;
41623;SDS011;27319;50.306;18.926;2023-08-12T11:48:23;4.25;;;2.70;;
41623;SDS011;27319;50.306;18.926;2023-08-12T11:52:24;4.10;;;2.60;;
41623;SDS011;27319;50.306;18.926;2023-08-12T11:56:25;4.28;;;2.30;;
41623;SDS011;27319;50.306;18.926;2023-08-12T11:59:28;5.85;;;1.73;;
41623;SDS011;27319;50.306;18.926;2023-08-12T12:03:07;2.70;;;2.20;;
41623;SDS011;27319;50.306;18.926;2023-08-12T12:07:18;2.58;;;2.30;;
41623;SDS011;27319;50.306;18.926;2023-08-12T12:11:18;7.50;;;4.25;;
41623;SDS011;27319;50.306;18.926;2023-08-12T12:15:19;7.38;;;4.10;;
41623;SDS011;27319;50.306;18.926;2023-08-12T12:19:20;4.82;;;2.70;;
41623;SDS011;27319;50.306;18.926;2023-08-12T12:23:21;3.85;;;2.40;;
41623;SDS011;27319;50.306;18.926;2023-08-12T12:27:21;3.63;;;2.72;;
41623;SDS011;27319;50.306;18.926;2023-08-12T12:30:45;3.33;;;2.70;;
41623;SDS011;27319;50.306;18.926;2023-08-12T12:34:46;3.25;;;2.95;;
41623;SDS011;27319;50.306;18.926;2023-08-12T12:37:50;3.83;;;3.10;;
41623;SDS011;27319;50.306;18.926;2023-08-12T12:41:59;7.45;;;3.30;;
41623;SDS011;27319;50.306;18.926;2023-08-12T12:46:00;5.68;;;3.63;;
41623;SDS011;27319;50.306;18.926;2023-08-12T12:49:02;4.22;;;3.05;;
41623;SDS011;27319;50.306;18.926;2023-08-12T12:53:03;2.83;;;2.53;;
41623;SDS011;27319;50.306;18.926;2023-08-12T12:57:04;2.90;;;2.50;;
41623;SDS011;27319;50.306;18.926;2023-08-12T13:01:06;4.90;;;3.22;;
41623;SDS011;27319;50.306;18.926;2023-08-12T13:05:07;4.15;;;2.97;;
41623;SDS011;27319;50.306;18.926;2023-08-12T13:09:08;3.20;;;2.80;;
41623;SDS011;27319;50.306;18.926;2023-08-12T13:13:15;4.03;;;3.00;;
41623;SDS011;27319;50.306;18.926;2023-08-12T13:17:15;6.30;;;3.55;;
41623;SDS011;27319;50.306;18.926;2023-08-12T13:21:16;3.83;;;3.47;;
41623;SDS011;27319;50.306;18.926;2023-08-12T13:25:17;2.67;;;2.45;;
41623;SDS011;27319;50.306;18.926;2023-08-12T13:29:18;2.50;;;1.60;;
41623;SDS011;27319;50.306;18.926;2023-08-12T13:33:19;2.97;;;2.00;;
41623;SDS011;27319;50.306;18.926;2023-08-12T13:37:20;2.85;;;1.90;;
41623;SDS011;27319;50.306;18.926;2023-08-12T13:41:21;5.35;;;2.20;;
41623;SDS011;27319;50.306;18.926;2023-08-12T13:45:22;3.42;;;2.35;;
41623;SDS011;27319;50.306;18.926;2023-08-12T13:49:23;2.72;;;1.83;;
41623;SDS011;27319;50.306;18.926;2023-08-12T13:53:23;3.40;;;2.15;;
41623;SDS011;27319;50.306;18.926;2023-08-12T13:57:24;3.72;;;1.67;;
41623;SDS011;27319;50.306;18.926;2023-08-12T14:01:25;2.88;;;1.98;;
41623;SDS011;27319;50.306;18.926;2023-08-12T14:05:26;2.60;;;1.85;;
41623;SDS011;27319;50.306;18.926;2023-08-12T14:09:30;3.03;;;2.08;;
41623;SDS011;27319;50.306;18.926;2023-08-12T14:13:33;3.80;;;2.90;;
41623;SDS011;27319;50.306;18.926;2023-08-12T14:17:34;4.60;;;1.75;;
41623;SDS011;27319;50.306;18.926;2023-08-12T14:25:12;3.72;;;2.10;;
41623;SDS011;27319;50.306;18.926;2023-08-12T14:29:15;3.47;;;2.10;;
41623;SDS011;27319;50.306;18.926;2023-08-12T14:32:16;2.25;;;1.67;;
41623;SDS011;27319;50.306;18.926;2023-08-12T14:36:17;4.68;;;2.08;;
41623;SDS011;27319;50.306;18.926;2023-08-12T14:40:18;3.67;;;2.20;;
41623;SDS011;27319;50.306;18.926;2023-08-12T14:44:19;3.58;;;1.90;;
41623;SDS011;27319;50.306;18.926;2023-08-12T14:48:20;3.38;;;1.90;;
41623;SDS011;27319;50.306;18.926;2023-08-12T14:52:21;5.03;;;1.80;;
41623;SDS011;27319;50.306;18.926;2023-08-12T14:56:22;3.88;;;2.20;;
41623;SDS011;27319;50.306;18.926;2023-08-12T14:59:58;2.63;;;1.88;;
41623;SDS011;27319;50.306;18.926;2023-08-12T15:02:59;17.27;;;6.35;;
41623;SDS011;27319;50.306;18.926;2023-08-12T15:07:00;8.18;;;3.75;;
41623;SDS011;27319;50.306;18.926;2023-08-12T15:11:03;11.10;;;3.65;;
41623;SDS011;27319;50.306;18.926;2023-08-12T15:15:04;6.40;;;2.85;;
41623;SDS011;27319;50.306;18.926;2023-08-12T15:18:05;4.07;;;2.65;;
41623;SDS011;27319;50.306;18.926;2023-08-12T15:21:28;7.57;;;2.75;;
41623;SDS011;27319;50.306;18.926;2023-08-12T15:24:28;3.55;;;3.17;;
41623;SDS011;27319;50.306;18.926;2023-08-12T15:27:29;4.47;;;2.38;;
41623;SDS011;27319;50.306;18.926;2023-08-12T15:30:47;2.92;;;2.10;;
41623;SDS011;27319;50.306;18.926;2023-08-12T15:34:48;3.88;;;2.05;;
41623;SDS011;27319;50.306;18.926;2023-08-12T15:38:53;2.83;;;2.15;;
41623;SDS011;27319;50.306;18.926;2023-08-12T15:42:54;2.40;;;1.90;;
41623;SDS011;27319;50.306;18.926;2023-08-12T15:46:58;3.55;;;2.17;;
41623;SDS011;27319;50.306;18.926;2023-08-12T15:50:59;3.05;;;1.88;;
41623;SDS011;27319;50.306;18.926;2023-08-12T15:55:03;3.47;;;1.90;;
41623;SDS011;27319;50.306;18.926;2023-08-12T15:59:04;3.85;;;1.88;;
41623;SDS011;27319;50.306;18.926;2023-08-12T16:03:05;3.08;;;1.92;;
41623;SDS011;27319;50.306;18.926;2023-08-12T16:07:06;2.40;;;1.60;;
41623;SDS011;27319;50.306;18.926;2023-08-12T16:11:07;2.90;;;1.63;;
41623;SDS011;27319;50.306;18.926;2023-08-12T16:15:08;3.53;;;2.15;;
41623;SDS011;27319;50.306;18.926;2023-08-12T16:19:08;4.05;;;1.90;;
41623;SDS011;27319;50.306;18.926;2023-08-12T16:22:10;3.65;;;1.95;;
41623;SDS011;27319;50.306;18.926;2023-08-12T16:26:11;3.45;;;1.70;;
41623;SDS011;27319;50.306;18.926;2023-08-12T16:30:11;3.65;;;2.10;;
41623;SDS011;27319;50.306;18.926;2023-08-12T16:33:12;3.78;;;2.22;;
41623;SDS011;27319;50.306;18.926;2023-08-12T16:36:17;3.53;;;1.95;;
41623;SDS011;27319;50.306;18.926;2023-08-12T16:40:18;2.95;;;2.40;;
41623;SDS011;27319;50.306;18.926;2023-08-12T16:44:29;3.60;;;2.42;;
41623;SDS011;27319;50.306;18.926;2023-08-12T16:48:30;4.05;;;3.55;;
41623;SDS011;27319;50.306;18.926;2023-08-12T16:51:30;5.10;;;3.95;;
41623;SDS011;27319;50.306;18.926;2023-08-12T16:55:26;5.18;;;3.72;;
41623;SDS011;27319;50.306;18.926;2023-08-12T16:59:27;4.88;;;3.38;;
41623;SDS011;27319;50.306;18.926;2023-08-12T17:03:31;10.25;;;7.65;;
41623;SDS011;27319;50.306;18.926;2023-08-12T17:07:32;7.90;;;4.32;;
41623;SDS011;27319;50.306;18.926;2023-08-12T17:10:36;7.75;;;5.07;;
41623;SDS011;27319;50.306;18.926;2023-08-12T17:13:38;8.93;;;7.53;;
41623;SDS011;27319;50.306;18.926;2023-08-12T17:16:39;5.55;;;4.00;;
41623;SDS011;27319;50.306;18.926;2023-08-12T17:19:41;7.57;;;3.75;;
41623;SDS011;27319;50.306;18.926;2023-08-12T17:22:42;4.82;;;3.03;;
41623;SDS011;27319;50.306;18.926;2023-08-12T17:26:38;4.43;;;3.40;;
41623;SDS011;27319;50.306;18.926;2023-08-12T17:29:39;6.10;;;3.63;;
41623;SDS011;27319;50.306;18.926;2023-08-12T17:33:40;8.75;;;5.13;;
41623;SDS011;27319;50.306;18.926;2023-08-12T17:37:41;11.10;;;5.65;;
41623;SDS011;27319;50.306;18.926;2023-08-12T17:41:41;7.85;;;5.90;;
41623;SDS011;27319;50.306;18.926;2023-08-12T17:45:18;7.32;;;4.10;;
41623;SDS011;27319;50.306;18.926;2023-08-12T17:48:19;6.70;;;3.92;;
41623;SDS011;27319;50.306;18.926;2023-08-12T17:52:22;4.68;;;2.80;;
41623;SDS011;27319;50.306;18.926;2023-08-12T17:56:25;5.05;;;3.50;;
41623;SDS011;27319;50.306;18.926;2023-08-12T18:00:06;5.90;;;4.10;;
41623;SDS011;27319;50.306;18.926;2023-08-12T18:04:06;5.50;;;4.10;;
41623;SDS011;27319;50.306;18.926;2023-08-12T18:08:07;5.45;;;4.40;;
41623;SDS011;27319;50.306;18.926;2023-08-12T18:12:08;6.25;;;5.07;;
41623;SDS011;27319;50.306;18.926;2023-08-12T18:16:09;7.72;;;4.72;;
41623;SDS011;27319;50.306;18.926;2023-08-12T18:20:10;9.05;;;5.78;;
41623;SDS011;27319;50.306;18.926;2023-08-12T18:23:11;9.82;;;6.28;;
41623;SDS011;27319;50.306;18.926;2023-08-12T18:27:12;17.27;;;9.02;;
41623;SDS011;27319;50.306;18.926;2023-08-12T18:31:12;16.05;;;8.93;;
41623;SDS011;27319;50.306;18.926;2023-08-12T18:35:14;14.20;;;9.23;;
41623;SDS011;27319;50.306;18.926;2023-08-12T18:39:11;13.02;;;8.43;;
41623;SDS011;27319;50.306;18.926;2023-08-12T18:43:11;16.65;;;9.70;;
41623;SDS011;27319;50.306;18.926;2023-08-12T18:47:12;13.80;;;9.68;;
41623;SDS011;27319;50.306;18.926;2023-08-12T18:51:13;15.82;;;10.07;;
41623;SDS011;27319;50.306;18.926;2023-08-12T18:55:14;16.27;;;10.77;;
41623;SDS011;27319;50.306;18.926;2023-08-12T18:59:15;18.23;;;11.38;;
41623;SDS011;27319;50.306;18.926;2023-08-12T19:03:16;16.80;;;11.40;;
41623;SDS011;27319;50.306;18.926;2023-08-12T19:07:16;15.50;;;9.18;;
41623;SDS011;27319;50.306;18.926;2023-08-12T19:11:17;16.25;;;8.93;;
41623;SDS011;27319;50.306;18.926;2023-08-12T19:15:18;15.55;;;9.98;;
41623;SDS011;27319;50.306;18.926;2023-08-12T19:19:19;13.85;;;9.60;;
41623;SDS011;27319;50.306;18.926;2023-08-12T19:22:20;12.63;;;8.43;;
41623;SDS011;27319;50.306;18.926;2023-08-12T19:25:21;17.80;;;9.25;;
41623;SDS011;27319;50.306;18.926;2023-08-12T19:28:21;14.73;;;9.43;;
41623;SDS011;27319;50.306;18.926;2023-08-12T19:31:22;19.83;;;9.68;;
41623;SDS011;27319;50.306;18.926;2023-08-12T19:35:23;18.08;;;11.35;;
41623;SDS011;27319;50.306;18.926;2023-08-12T19:39:24;22.33;;;13.82;;
41623;SDS011;27319;50.306;18.926;2023-08-12T19:43:25;20.50;;;12.48;;
41623;SDS011;27319;50.306;18.926;2023-08-12T19:47:26;24.30;;;15.43;;
41623;SDS011;27319;50.306;18.926;2023-08-12T19:51:26;23.50;;;12.52;;
41623;SDS011;27319;50.306;18.926;2023-08-12T19:55:27;19.60;;;12.40;;
41623;SDS011;27319;50.306;18.926;2023-08-12T19:59:27;23.05;;;13.10;;
41623;SDS011;27319;50.306;18.926;2023-08-12T20:03:28;20.88;;;12.80;;
41623;SDS011;27319;50.306;18.926;2023-08-12T20:07:29;23.52;;;13.02;;
41623;SDS011;27319;50.306;18.926;2023-08-12T20:11:30;19.02;;;12.82;;
41623;SDS011;27319;50.306;18.926;2023-08-12T20:15:31;19.00;;;12.55;;
41623;SDS011;27319;50.306;18.926;2023-08-12T20:19:33;13.93;;;10.70;;
41623;SDS011;27319;50.306;18.926;2023-08-12T20:22:35;16.48;;;10.48;;
41623;SDS011;27319;50.306;18.926;2023-08-12T20:25:37;14.52;;;10.23;;
41623;SDS011;27319;50.306;18.926;2023-08-12T20:29:37;16.77;;;10.25;;
41623;SDS011;27319;50.306;18.926;2023-08-12T20:32:38;14.10;;;9.85;;
41623;SDS011;27319;50.306;18.926;2023-08-12T20:36:39;14.13;;;9.20;;
41623;SDS011;27319;50.306;18.926;2023-08-12T20:39:39;14.77;;;9.48;;
41623;SDS011;27319;50.306;18.926;2023-08-12T20:42:41;17.83;;;9.60;;
41623;SDS011;27319;50.306;18.926;2023-08-12T20:46:42;14.25;;;9.90;;
41623;SDS011;27319;50.306;18.926;2023-08-12T20:50:42;14.25;;;9.82;;
41623;SDS011;27319;50.306;18.926;2023-08-12T20:53:43;15.25;;;9.60;;
41623;SDS011;27319;50.306;18.926;2023-08-12T20:56:44;14.02;;;8.93;;
41623;SDS011;27319;50.306;18.926;2023-08-12T21:00:46;12.77;;;8.27;;
41623;SDS011;27319;50.306;18.926;2023-08-12T21:04:47;12.25;;;8.52;;
41623;SDS011;27319;50.306;18.926;2023-08-12T21:07:48;12.23;;;7.80;;
41623;SDS011;27319;50.306;18.926;2023-08-12T21:10:50;13.10;;;9.07;;
41623;SDS011;27319;50.306;18.926;2023-08-12T21:14:50;10.77;;;8.10;;
41623;SDS011;27319;50.306;18.926;2023-08-12T21:17:52;14.43;;;8.70;;
41623;SDS011;27319;50.306;18.926;2023-08-12T21:20:53;18.10;;;10.50;;
41623;SDS011;27319;50.306;18.926;2023-08-12T21:23:54;15.70;;;10.38;;
41623;SDS011;27319;50.306;18.926;2023-08-12T21:26:55;19.45;;;12.10;;
41623;SDS011;27319;50.306;18.926;2023-08-12T21:29:56;18.48;;;12.73;;
41623;SDS011;27319;50.306;18.926;2023-08-12T21:33:01;23.02;;;14.50;;
41623;SDS011;27319;50.306;18.926;2023-08-12T21:36:01;25.77;;;15.63;;
41623;SDS011;27319;50.306;18.926;2023-08-12T21:40:05;33.53;;;20.65;;
41623;SDS011;27319;50.306;18.926;2023-08-12T21:43:43;42.75;;;24.42;;
41623;SDS011;27319;50.306;18.926;2023-08-12T21:47:44;52.78;;;28.13;;
41623;SDS011;27319;50.306;18.926;2023-08-12T21:50:45;47.58;;;26.67;;
41623;SDS011;27319;50.306;18.926;2023-08-12T21:53:46;42.33;;;26.55;;
41623;SDS011;27319;50.306;18.926;2023-08-12T21:56:47;43.90;;;26.52;;
41623;SDS011;27319;50.306;18.926;2023-08-12T21:59:48;45.45;;;26.70;;
41623;SDS011;27319;50.306;18.926;2023-08-12T22:03:49;50.75;;;30.08;;
41623;SDS011;27319;50.306;18.926;2023-08-12T22:07:50;44.97;;;28.45;;
41623;SDS011;27319;50.306;18.926;2023-08-12T22:11:31;46.95;;;30.20;;
41623;SDS011;27319;50.306;18.926;2023-08-12T22:14:33;58.53;;;32.53;;
41623;SDS011;27319;50.306;18.926;2023-08-12T22:17:34;58.10;;;32.55;;
41623;SDS011;27319;50.306;18.926;2023-08-12T22:21:30;58.00;;;35.72;;
41623;SDS011;27319;50.306;18.926;2023-08-12T22:24:31;54.70;;;32.60;;
41623;SDS011;27319;50.306;18.926;2023-08-12T22:28:12;52.28;;;30.88;;
41623;SDS011;27319;50.306;18.926;2023-08-12T22:31:29;49.50;;;28.30;;
41623;SDS011;27319;50.306;18.926;2023-08-12T22:34:30;41.97;;;25.45;;